Tampa, FL (33647)

8:46 AM EST en Febrero 09, 2016 (GMT -0500)
Ashington Estates; Tampa Palms North | | Change Station
CLOSE
Current Station
Estación meteorológica personal
Location: Tampa, FL
Altura: 41 ft
Estaciones meteorológicas cercanas
Aviso en curso: Lake Wind Advisory Aviso activo: Public Information Statement

Alt 41 ft 28.13 °N, 82.39 °W | Updated 12 seconds ago

Nublado
Nublado
52.3 ° F
Sensación térmica 52.3 ° F
N
0.0
Viento Variable Viento desde NO
Gusts 0.0 mph

Hoy
Alta -- | Baja -- ° F
--% Posibilidad de precipitaciones
Ayer
Alta -- | Baja -- ° F
Precip. -- pul
Presión 30.07 pul
Visibilidad 10.0 Millas
Nubes Nublado 7000 ft
Punto de rocío 39 ° F
Humedad 61%
Precipitaciones 0.00 pul
Espesor de la nieve No disponible.
7:12 AM 6:15 PM
Luna nueva, 1% visible
METAR KVDF 091335Z AUTO 00000KT 10SM OVC070 12/01 A3007 RMK AO2
Presión 30.07 pul
Visibilidad 10.0 Millas
Nubes Nublado 7000 ft
Punto de rocío 39 ° F
Humedad 61%
Precipitaciones 0.00 pul
Espesor de la nieve No disponible.
7:12 AM 6:15 PM
Luna nueva, 1% visible
METAR KVDF 091335Z AUTO 00000KT 10SM OVC070 12/01 A3007 RMK AO2

10-Day Weather Forecast

Almanac

Astronomía

Feb. 09, 2016 Salida Puesta
Hora real
Crepúsculo civil
Crepúsculo náutico
Crepúsculo astronómico
Luna
Horas de luz
Horas de luz
Tomorrow will be .
, % of the Moon is Illuminated

Extremos de hoy

Máximos del estado Bajos del estado

Community

WunderPhotos

Upload Photos

1,891,591 ¡fotos cargadas!

WunderBlog® & News

Nearby

Calidad del aire

  Calidad del aire Índice AQ Contaminante
Not available.

Grosos de nieve

Estación Profundido Altura

Actividad de terremotos

Ciudad Distance Mag. Tiempo y dato
Magnitud mínima muestra es 2,5.

Temperaturas de aguas costeras

Lugar Temperatura

Stations

Estaciones meteorológicas cercanas

Ubicación de la estación Temp. Vientos helados Punto de rocío Humedad Viento Precip. Alt Actualizado Tipo
                   

Watches & Warnings

Lake Wind Advisory
Issued: 4:12 AM EST Feb. 9, 2016 – National Weather Service

... Lake Wind Advisory in effect from 11 am this morning to 6 PM
EST this evening...

The National Weather Service in Tampa Bay area - Ruskin FL has
issued a lake Wind Advisory... which is in effect from 11 am this
morning to 6 PM EST this evening.

* Timing... 11 am to 6 PM EST

* winds... sustained winds of 20 to 25 mph with some higher gusts
over area lakes.

* Impacts... hazardous boating conditions on area lakes.

Precautionary/preparedness actions...

A lake Wind Advisory is issued when sustained winds are forecast
to be 20 to 29 mph with frequent gusts to near or above gale
force for at least 3 hours. Winds of these magnitudes will
create rough conditions on larger area lakes which could produce
damage to... or flip... small pleasure craft.

Outdoor enthusiasts may wish to postpone lake related activities
until conditions improve.